Time;durP1;ratioP1;P1;durP2;ratioP2;P2;SDS_P1;SDS_P2;PMS_P1;PMS_P2;Temp;Humidity;BMP_temperature;BMP_pressure;BME280_temperature;BME280_humidity;BME280_pressure;Samples;Min_cycle;Max_cycle;Signal;HPM_P1;HPM_P2
2022/01/23 00:00:58;;;;;;;;;;;4.50;99.90;;;;;;6116113;23;19913;-89
2022/01/23 00:03:24;;;;;;;;;;;4.50;99.90;;;;;;6142840;23;19909;-88
2022/01/23 00:05:51;;;;;;;;;;;4.50;99.90;;;;;;6114414;23;20300;-89
2022/01/23 00:08:21;;;;;;;;;;;4.50;99.90;;;;;;6142954;23;19913;-87
2022/01/23 00:10:47;;;;;;;;;;;4.50;99.90;;;;;;6116066;23;20230;-89
2022/01/23 00:13:27;;;;;;;;;;;4.50;99.90;;;;;;6116015;23;19920;-88
2022/01/23 00:18:37;;;;;;;;;;;4.50;99.90;;;;;;6141362;23;20375;-88
2022/01/23 00:21:02;;;;;;;;;;;4.50;99.90;;;;;;6115329;23;19909;-88
2022/01/23 00:30:19;;;;;;;;;;;4.50;99.90;;;;;;6116233;23;19913;-89
2022/01/23 00:31:50;;;;;;;;;;;4.60;99.90;;;;;;6141464;23;19935;-88
2022/01/23 00:34:16;;;;;;;;;;;4.60;99.90;;;;;;6116185;23;19940;-88
2022/01/23 00:36:41;;;;;;;;;;;4.60;99.90;;;;;;6116121;23;19909;-88
2022/01/23 00:39:07;;;;;;;;;;;4.60;99.90;;;;;;6116471;23;19913;-89
2022/01/23 00:41:32;;;;;;;;;;;4.60;99.90;;;;;;6116538;23;19916;-88
2022/01/23 00:43:59;;;;;;;;;;;4.60;99.90;;;;;;6115008;23;19912;-87
2022/01/23 00:46:32;;;;;;;;;;;4.60;99.90;;;;;;6115167;23;20360;-88
2022/01/23 00:51:23;;;;;;;;;;;4.70;99.90;;;;;;6142430;23;19924;-88
2022/01/23 00:53:49;;;;;;;;;;;4.70;99.90;;;;;;6117090;23;19943;-89
2022/01/23 00:56:15;;;;;;;;;;;4.60;99.90;;;;;;6118293;23;20329;-88
2022/01/23 00:58:40;;;;;;;;;;;4.70;99.90;;;;;;6119496;23;19919;-89
2022/01/23 01:01:06;;;;;;;;;;;4.70;99.90;;;;;;6120644;23;19924;-88
2022/01/23 01:03:32;;;;;;;;;;;4.70;99.90;;;;;;6121024;23;19916;-88
2022/01/23 01:05:57;;;;;;;;;;;4.70;99.90;;;;;;6144873;23;20328;-88
2022/01/23 01:08:23;;;;;;;;;;;4.70;99.90;;;;;;6120152;23;19983;-89
2022/01/23 01:11:00;;;;;;;;;;;4.70;99.90;;;;;;6118011;23;19908;-88
2022/01/23 01:13:31;;;;;;;;;;;4.70;99.90;;;;;;6144997;23;19967;-89
2022/01/23 01:16:35;;;;;;;;;;;4.70;99.90;;;;;;6143000;23;19979;-89
2022/01/23 01:35:14;;;;;;;;;;;4.80;99.90;;;;;;6143486;23;19917;-88
2022/01/23 01:37:40;;;;;;;;;;;4.80;99.90;;;;;;6119352;23;19912;-87
2022/01/23 01:40:06;;;;;;;;;;;4.80;99.90;;;;;;6145178;23;19921;-89
2022/01/23 01:42:31;;;;;;;;;;;4.80;99.90;;;;;;6118299;23;19921;-89
2022/01/23 01:44:57;;;;;;;;;;;4.80;99.90;;;;;;6118076;23;20297;-89
2022/01/23 01:47:23;;;;;;;;;;;4.80;99.90;;;;;;6117592;23;20886;-89
2022/01/23 01:49:48;;;;;;;;;;;4.80;99.90;;;;;;6116776;23;19908;-89
2022/01/23 01:52:14;;;;;;;;;;;4.90;99.90;;;;;;6115978;23;19920;-88
2022/01/23 01:54:42;;;;;;;;;;;4.90;99.90;;;;;;6117986;23;20202;-88
2022/01/23 01:57:11;;;;;;;;;;;4.90;99.90;;;;;;6117130;23;20338;-88
2022/01/23 02:10:23;;;;;;;;;;;4.90;99.90;;;;;;6142729;23;19920;-86
2022/01/23 02:13:05;;;;;;;;;;;4.90;99.90;;;;;;6102232;23;19912;-86
2022/01/23 02:16:00;;;;;;;;;;;4.90;99.90;;;;;;6116254;23;20325;-88
2022/01/23 02:51:01;;;;;;;;;;;5.00;99.90;;;;;;6140864;23;19995;-88
2022/01/23 02:55:56;;;;;;;;;;;5.00;99.90;;;;;;6128052;23;19919;-88
2022/01/23 02:58:24;;;;;;;;;;;5.00;99.90;;;;;;6117654;23;19915;-88
2022/01/23 03:01:07;;;;;;;;;;;4.90;99.90;;;;;;6115959;23;19913;-89
2022/01/23 03:03:38;;;;;;;;;;;5.00;99.90;;;;;;6117405;23;19916;-87
2022/01/23 03:12:16;;;;;;;;;;;4.90;99.90;;;;;;6128315;23;19916;-87
2022/01/23 03:25:08;;;;;;;;;;;4.90;99.90;;;;;;6142581;23;19919;-87
2022/01/23 03:30:23;;;;;;;;;;;5.00;99.90;;;;;;6141220;23;19919;-87
2022/01/23 03:32:51;;;;;;;;;;;5.00;99.90;;;;;;6117075;23;19913;-88
2022/01/23 03:35:17;;;;;;;;;;;5.00;99.90;;;;;;6141585;23;19998;-88
2022/01/23 03:37:43;;;;;;;;;;;5.00;99.90;;;;;;6117544;23;20123;-89
2022/01/23 03:40:08;;;;;;;;;;;4.90;99.90;;;;;;6115308;23;19919;-87
2022/01/23 03:42:37;;;;;;;;;;;4.90;99.90;;;;;;6115080;23;19995;-88
2022/01/23 03:50:46;;;;;;;;;;;4.90;99.90;;;;;;6119193;23;19925;-88
2022/01/23 03:53:12;;;;;;;;;;;4.90;99.90;;;;;;6117149;23;19916;-89
2022/01/23 03:55:37;;;;;;;;;;;4.90;99.90;;;;;;6115727;23;20585;-89
2022/01/23 03:58:04;;;;;;;;;;;4.90;99.90;;;;;;6115660;23;19913;-88
2022/01/23 04:00:29;;;;;;;;;;;5.00;99.90;;;;;;6116088;23;19916;-88
2022/01/23 04:02:56;;;;;;;;;;;4.90;99.90;;;;;;6116377;23;20384;-87
2022/01/23 04:05:21;;;;;;;;;;;4.90;99.90;;;;;;6114732;23;20266;-89
2022/01/23 04:07:49;;;;;;;;;;;4.90;99.90;;;;;;6116819;23;19916;-88
2022/01/23 04:10:18;;;;;;;;;;;4.90;99.90;;;;;;6113823;23;19919;-89
2022/01/23 04:16:27;;;;;;;;;;;4.90;99.90;;;;;;6142118;23;19916;-89
2022/01/23 04:21:14;;;;;;;;;;;4.90;99.90;;;;;;6141463;23;19919;-88
2022/01/23 04:31:45;;;;;;;;;;;4.90;99.90;;;;;;6142369;23;19919;-89
2022/01/23 04:34:30;;;;;;;;;;;4.90;99.90;;;;;;6144282;23;19916;-88
2022/01/23 04:45:29;;;;;;;;;;;4.90;99.90;;;;;;6141562;23;19920;-89
2022/01/23 05:01:41;;;;;;;;;;;4.90;99.90;;;;;;6143040;23;19927;-87
2022/01/23 05:04:15;;;;;;;;;;;4.90;99.90;;;;;;6102607;23;19955;-90
2022/01/23 05:07:07;;;;;;;;;;;4.90;99.90;;;;;;6115240;23;20399;-87
2022/01/23 05:09:28;;;;;;;;;;;4.80;99.90;;;;;;6125377;23;19969;-88
2022/01/23 05:11:58;;;;;;;;;;;4.90;99.90;;;;;;6096837;23;20231;-87
2022/01/23 05:14:33;;;;;;;;;;;4.80;99.90;;;;;;6113320;23;19912;-88
2022/01/23 05:16:59;;;;;;;;;;;4.90;99.90;;;;;;6113968;23;20274;-88
2022/01/23 05:19:25;;;;;;;;;;;4.90;99.90;;;;;;6116119;23;20257;-88
2022/01/23 05:24:40;;;;;;;;;;;4.90;99.90;;;;;;6144006;23;19920;-88
2022/01/23 05:27:07;;;;;;;;;;;4.90;99.90;;;;;;6116973;23;19916;-88
2022/01/23 05:29:33;;;;;;;;;;;4.90;99.90;;;;;;6144290;23;19967;-87
2022/01/23 05:31:59;;;;;;;;;;;4.90;99.90;;;;;;6117256;23;19915;-88
2022/01/23 05:34:25;;;;;;;;;;;4.90;99.90;;;;;;6117425;23;19913;-87
2022/01/23 05:36:51;;;;;;;;;;;4.90;99.90;;;;;;6097611;23;19948;-88
2022/01/23 05:39:20;;;;;;;;;;;4.90;99.90;;;;;;6138984;23;19916;-89
2022/01/23 05:41:45;;;;;;;;;;;4.90;99.90;;;;;;6118112;23;20218;-88
2022/01/23 05:44:11;;;;;;;;;;;4.90;99.90;;;;;;6119156;23;19917;-88
2022/01/23 05:46:37;;;;;;;;;;;4.90;99.90;;;;;;6118535;23;19913;-88
2022/01/23 05:49:04;;;;;;;;;;;4.90;99.90;;;;;;6118754;23;20246;-87
2022/01/23 05:51:29;;;;;;;;;;;4.80;99.90;;;;;;6120563;23;19924;-87
2022/01/23 05:53:55;;;;;;;;;;;4.80;99.90;;;;;;6120771;23;19920;-88
2022/01/23 05:56:23;;;;;;;;;;;4.80;99.90;;;;;;6120442;23;19944;-87
2022/01/23 05:58:48;;;;;;;;;;;4.90;99.90;;;;;;6148619;23;20487;-87
2022/01/23 06:01:14;;;;;;;;;;;4.90;99.90;;;;;;6121509;23;19936;-87
2022/01/23 06:03:39;;;;;;;;;;;4.90;99.90;;;;;;6148512;23;19908;-88
2022/01/23 06:06:05;;;;;;;;;;;4.90;99.90;;;;;;6118914;23;19917;-88
2022/01/23 06:08:31;;;;;;;;;;;4.90;99.90;;;;;;6147536;23;24555;-87
2022/01/23 06:10:57;;;;;;;;;;;4.90;99.90;;;;;;6108724;23;19919;-87
2022/01/23 06:13:23;;;;;;;;;;;4.90;99.90;;;;;;6146453;23;20222;-87
2022/01/23 06:15:49;;;;;;;;;;;4.90;99.90;;;;;;6118678;23;19964;-87
2022/01/23 06:18:14;;;;;;;;;;;4.90;99.90;;;;;;6118274;23;19916;-88
2022/01/23 06:20:40;;;;;;;;;;;4.90;99.90;;;;;;6119105;23;19936;-88
2022/01/23 06:23:05;;;;;;;;;;;4.90;99.90;;;;;;6120282;23;19927;-88
2022/01/23 06:25:36;;;;;;;;;;;4.90;99.90;;;;;;6119316;23;20354;-88
2022/01/23 06:28:07;;;;;;;;;;;4.90;99.90;;;;;;6120426;23;20453;-88
2022/01/23 06:30:33;;;;;;;;;;;4.90;99.90;;;;;;6118706;23;19932;-88
2022/01/23 06:32:58;;;;;;;;;;;4.90;99.90;;;;;;6146486;23;20277;-88
2022/01/23 06:35:24;;;;;;;;;;;4.90;99.90;;;;;;6119649;23;19912;-88
2022/01/23 06:37:52;;;;;;;;;;;4.90;99.90;;;;;;6120210;23;19912;-87
2022/01/23 06:40:18;;;;;;;;;;;4.90;99.90;;;;;;6146420;23;20643;-87
2022/01/23 06:42:43;;;;;;;;;;;4.90;99.90;;;;;;6122060;23;19917;-87
2022/01/23 06:45:09;;;;;;;;;;;4.90;99.90;;;;;;6121514;23;19944;-88
2022/01/23 06:47:37;;;;;;;;;;;4.90;99.90;;;;;;6120857;23;20329;-88
2022/01/23 06:50:04;;;;;;;;;;;4.90;99.90;;;;;;6121022;23;20277;-87
2022/01/23 06:52:29;;;;;;;;;;;4.90;99.90;;;;;;6119539;23;19913;-87
2022/01/23 06:54:55;;;;;;;;;;;4.90;99.90;;;;;;6146028;23;20371;-87
2022/01/23 06:57:20;;;;;;;;;;;4.90;99.90;;;;;;6119725;23;19935;-87
2022/01/23 06:59:46;;;;;;;;;;;4.90;99.90;;;;;;6146217;23;20226;-88
2022/01/23 07:02:11;;;;;;;;;;;5.00;99.90;;;;;;6119378;23;19996;-87
2022/01/23 07:04:37;;;;;;;;;;;5.00;99.90;;;;;;6120146;23;19913;-88
2022/01/23 07:07:03;;;;;;;;;;;5.00;99.90;;;;;;6117685;23;20226;-87
2022/01/23 07:09:33;;;;;;;;;;;5.00;99.90;;;;;;6117571;23;19909;-89
2022/01/23 07:11:59;;;;;;;;;;;5.00;99.90;;;;;;6116777;23;19909;-89
2022/01/23 07:14:25;;;;;;;;;;;5.00;99.90;;;;;;6091985;23;20092;-89
2022/01/23 07:16:50;;;;;;;;;;;5.00;99.90;;;;;;6117455;23;20605;-89
2022/01/23 07:19:17;;;;;;;;;;;5.00;99.90;;;;;;6098894;23;19933;-90
2022/01/23 07:21:42;;;;;;;;;;;5.00;99.90;;;;;;6123426;23;19913;-90
2022/01/23 07:24:08;;;;;;;;;;;5.00;99.90;;;;;;6118109;23;19967;-88
2022/01/23 07:26:36;;;;;;;;;;;5.00;99.90;;;;;;6101886;23;19917;-90
2022/01/23 07:29:06;;;;;;;;;;;5.00;99.90;;;;;;6115822;23;19924;-90
2022/01/23 07:34:07;;;;;;;;;;;5.00;99.90;;;;;;6127010;23;19947;-89
2022/01/23 07:36:35;;;;;;;;;;;5.00;99.90;;;;;;6115475;23;19917;-89
2022/01/23 07:39:02;;;;;;;;;;;5.00;99.90;;;;;;6087565;23;20349;-88
2022/01/23 07:41:28;;;;;;;;;;;5.00;99.90;;;;;;6141580;23;19913;-88
2022/01/23 07:44:00;;;;;;;;;;;5.00;99.90;;;;;;6087803;23;19913;-87
2022/01/23 07:46:27;;;;;;;;;;;5.10;99.90;;;;;;6088892;23;20143;-88
2022/01/23 07:48:53;;;;;;;;;;;5.10;99.90;;;;;;6116675;23;20019;-88
2022/01/23 07:51:18;;;;;;;;;;;5.10;99.90;;;;;;6125420;23;19920;-87
2022/01/23 07:53:44;;;;;;;;;;;5.10;99.90;;;;;;6101344;23;19916;-88
2022/01/23 07:56:19;;;;;;;;;;;5.10;99.90;;;;;;6139323;23;20146;-88
2022/01/23 07:58:47;;;;;;;;;;;5.10;99.90;;;;;;6114172;23;19920;-88
2022/01/23 08:01:24;;;;;;;;;;;5.10;99.90;;;;;;6114778;23;19979;-89
2022/01/23 08:04:20;;;;;;;;;;;;;;;;;;;;;
2022/01/23 08:06:54;;;;;;;;;;;5.20;99.90;;;;;;6061853;23;20953;-91
2022/01/23 08:09:19;;;;;;;;;;;5.20;99.90;;;;;;6090124;23;20313;-88
2022/01/23 08:11:45;;;;;;;;;;;5.40;99.90;;;;;;6140972;23;19941;-87
2022/01/23 08:14:19;;;;;;;;;;;5.30;99.90;;;;;;6102612;23;20289;-87
2022/01/23 08:16:50;;;;;;;;;;;5.30;99.90;;;;;;6068286;23;19956;-87
2022/01/23 08:19:16;;;;;;;;;;;5.30;99.90;;;;;;6097933;23;20019;-87
2022/01/23 08:21:41;;;;;;;;;;;5.30;99.90;;;;;;6100917;23;20297;-88
2022/01/23 08:24:07;;;;;;;;;;;5.40;99.90;;;;;;6101604;23;19913;-90
2022/01/23 08:26:42;;;;;;;;;;;5.40;99.90;;;;;;6094629;23;19948;-87
2022/01/23 08:29:09;;;;;;;;;;;5.40;99.90;;;;;;6110501;23;19987;-89
2022/01/23 08:31:35;;;;;;;;;;;5.40;99.90;;;;;;6096215;23;19912;-86
2022/01/23 08:34:00;;;;;;;;;;;5.40;99.90;;;;;;6110260;23;19919;-86
2022/01/23 08:36:31;;;;;;;;;;;5.40;99.90;;;;;;6099375;23;20426;-88
2022/01/23 08:38:59;;;;;;;;;;;5.50;99.90;;;;;;6114110;23;20134;-85
2022/01/23 08:43:50;;;;;;;;;;;5.60;99.90;;;;;;6140612;23;19999;-86
2022/01/23 08:46:16;;;;;;;;;;;5.60;99.90;;;;;;6114746;23;19924;-85
2022/01/23 08:48:42;;;;;;;;;;;5.70;99.90;;;;;;6141994;23;19992;-87
2022/01/23 08:51:11;;;;;;;;;;;5.70;99.90;;;;;;6116779;23;19932;-83
2022/01/23 08:53:37;;;;;;;;;;;5.70;99.90;;;;;;6117325;23;20424;-85
2022/01/23 08:56:06;;;;;;;;;;;5.80;99.90;;;;;;6128056;23;19922;-86
2022/01/23 08:58:31;;;;;;;;;;;5.70;99.90;;;;;;6103564;23;19908;-85
2022/01/23 09:00:58;;;;;;;;;;;5.80;99.90;;;;;;6141269;23;19919;-85
2022/01/23 09:03:23;;;;;;;;;;;5.70;99.90;;;;;;6102647;23;19921;-85
2022/01/23 09:05:49;;;;;;;;;;;5.70;99.90;;;;;;6114478;23;20211;-86
2022/01/23 09:08:15;;;;;;;;;;;5.80;99.90;;;;;;6115806;23;19913;-85
2022/01/23 09:10:43;;;;;;;;;;;5.80;99.90;;;;;;6141492;23;20364;-85
2022/01/23 09:13:31;;;;;;;;;;;5.70;99.90;;;;;;6116895;23;19948;-84
2022/01/23 09:15:57;;;;;;;;;;;5.70;99.90;;;;;;6090670;23;20289;-85
2022/01/23 09:18:36;;;;;;;;;;;5.70;99.90;;;;;;6104832;23;19916;-86
2022/01/23 09:21:05;;;;;;;;;;;5.70;99.90;;;;;;6086526;23;19926;-84
2022/01/23 09:23:33;;;;;;;;;;;5.70;99.90;;;;;;6092627;23;19923;-84
2022/01/23 09:26:16;;;;;;;;;;;5.70;99.90;;;;;;6117952;23;19953;-85
2022/01/23 09:28:44;;;;;;;;;;;5.70;99.90;;;;;;6118580;23;19913;-85
2022/01/23 09:31:12;;;;;;;;;;;5.70;99.90;;;;;;6116929;23;20383;-84
2022/01/23 09:33:39;;;;;;;;;;;5.70;99.90;;;;;;6109322;23;20233;-85
2022/01/23 09:36:08;;;;;;;;;;;5.70;99.90;;;;;;6104868;23;20388;-86
2022/01/23 09:38:33;;;;;;;;;;;5.80;99.90;;;;;;6146326;23;19913;-86
2022/01/23 09:40:59;;;;;;;;;;;5.80;99.90;;;;;;6120024;23;20340;-86
2022/01/23 09:43:25;;;;;;;;;;;5.90;99.90;;;;;;6133620;23;19991;-85
2022/01/23 09:45:53;;;;;;;;;;;6.00;99.90;;;;;;6145026;23;19912;-86
2022/01/23 09:48:19;;;;;;;;;;;5.90;99.90;;;;;;6148418;23;20405;-86
2022/01/23 09:50:46;;;;;;;;;;;5.90;99.90;;;;;;6113892;23;19921;-86
2022/01/23 09:53:14;;;;;;;;;;;6.10;99.90;;;;;;6093895;23;19928;-86
2022/01/23 09:55:46;;;;;;;;;;;6.00;99.90;;;;;;6099552;23;20035;-86
2022/01/23 09:58:12;;;;;;;;;;;6.00;99.90;;;;;;6115982;23;19913;-86
2022/01/23 10:00:37;;;;;;;;;;;6.00;99.90;;;;;;6115414;23;19912;-86
2022/01/23 10:03:03;;;;;;;;;;;6.00;99.90;;;;;;6117345;23;20360;-86
2022/01/23 10:05:29;;;;;;;;;;;6.00;99.90;;;;;;6112735;23;19909;-85
2022/01/23 10:07:54;;;;;;;;;;;5.90;99.90;;;;;;6117800;23;20028;-85
2022/01/23 10:10:27;;;;;;;;;;;6.00;99.90;;;;;;6116094;23;19925;-86
2022/01/23 10:12:55;;;;;;;;;;;5.90;99.90;;;;;;6115224;23;20313;-87
2022/01/23 10:15:27;;;;;;;;;;;6.00;99.90;;;;;;6112162;23;20278;-87
2022/01/23 10:17:55;;;;;;;;;;;5.90;99.90;;;;;;6116297;23;20353;-86
2022/01/23 10:20:21;;;;;;;;;;;5.90;99.90;;;;;;6103513;23;20565;-87
2022/01/23 10:25:55;;;;;;;;;;;6.10;99.90;;;;;;6028395;23;20326;-88
2022/01/23 10:28:55;;;;;;;;;;;6.10;99.90;;;;;;6034482;23;20373;-86
2022/01/23 10:31:24;;;;;;;;;;;6.20;99.90;;;;;;6006095;23;19992;-87
2022/01/23 10:34:24;;;;;;;;;;;6.30;99.90;;;;;;6081741;23;20211;-88
2022/01/23 10:36:59;;;;;;;;;;;6.40;99.90;;;;;;6072615;23;19960;-88
2022/01/23 10:39:38;;;;;;;;;;;6.40;99.90;;;;;;6110491;23;20471;-87
2022/01/23 10:48:35;;;;;;;;;;;6.30;99.90;;;;;;6106550;23;19915;-85
2022/01/23 10:51:12;;;;;;;;;;;6.30;99.90;;;;;;6110515;23;20380;-86
2022/01/23 10:54:00;;;;;;;;;;;6.20;99.90;;;;;;6126721;23;19913;-85
2022/01/23 10:56:27;;;;;;;;;;;6.20;99.90;;;;;;6095098;23;20282;-86
2022/01/23 10:59:11;;;;;;;;;;;6.20;99.90;;;;;;6110805;23;20003;-86
2022/01/23 11:01:39;;;;;;;;;;;6.20;99.90;;;;;;6110956;23;19917;-85
2022/01/23 11:04:05;;;;;;;;;;;6.20;99.90;;;;;;6109822;23;20509;-86
2022/01/23 11:06:31;;;;;;;;;;;6.20;99.90;;;;;;6100224;23;19913;-85
2022/01/23 11:09:10;;;;;;;;;;;6.20;99.90;;;;;;6110664;23;20178;-86
2022/01/23 11:11:39;;;;;;;;;;;6.30;99.90;;;;;;6110384;23;20376;-85
2022/01/23 11:19:46;;;;;;;;;;;6.40;99.90;;;;;;6114229;23;19971;-86
2022/01/23 11:22:23;;;;;;;;;;;6.80;99.90;;;;;;6099168;23;20119;-87
2022/01/23 11:24:56;;;;;;;;;;;6.90;99.90;;;;;;6110940;23;20280;-86
2022/01/23 11:27:22;;;;;;;;;;;6.80;99.90;;;;;;6107285;23;20632;-85
2022/01/23 11:29:52;;;;;;;;;;;6.80;99.90;;;;;;6110218;23;19943;-86
2022/01/23 11:32:30;;;;;;;;;;;6.80;99.90;;;;;;6071036;23;20333;-88
2022/01/23 11:35:05;;;;;;;;;;;6.70;99.90;;;;;;6098756;23;19995;-87
2022/01/23 11:37:34;;;;;;;;;;;6.60;99.90;;;;;;6056196;23;19920;-86
2022/01/23 11:40:07;;;;;;;;;;;6.60;99.90;;;;;;6097802;23;20012;-86
2022/01/23 11:53:54;;;;;;;;;;;6.60;99.90;;;;;;6081558;23;19941;-87
2022/01/23 11:56:29;;;;;;;;;;;6.50;99.90;;;;;;6082551;23;19913;-86
2022/01/23 11:59:13;;;;;;;;;;;6.50;99.90;;;;;;6067972;23;19913;-85
2022/01/23 12:01:40;;;;;;;;;;;6.60;99.90;;;;;;6080449;23;19976;-87
2022/01/23 12:04:06;;;;;;;;;;;6.60;99.90;;;;;;6080660;23;20190;-86
2022/01/23 12:06:32;;;;;;;;;;;6.50;99.90;;;;;;6078400;23;20841;-87
2022/01/23 12:09:10;;;;;;;;;;;6.50;99.90;;;;;;6080531;23;19929;-87
2022/01/23 12:11:43;;;;;;;;;;;6.50;99.90;;;;;;6080010;23;19914;-87
2022/01/23 12:16:58;;;;;;;;;;;6.60;99.90;;;;;;6078472;23;19936;-87
2022/01/23 12:19:33;;;;;;;;;;;6.70;99.90;;;;;;6057598;23;19913;-87
2022/01/23 12:22:19;;;;;;;;;;;6.70;99.90;;;;;;6100161;23;19980;-85
2022/01/23 12:24:48;;;;;;;;;;;6.80;99.90;;;;;;6117236;23;19921;-88
2022/01/23 12:27:19;;;;;;;;;;;6.90;99.90;;;;;;6116096;23;20364;-86
2022/01/23 12:29:44;;;;;;;;;;;6.80;99.90;;;;;;6116656;23;19913;-87
2022/01/23 12:32:19;;;;;;;;;;;6.80;99.90;;;;;;6142670;23;19909;-86
2022/01/23 12:34:49;;;;;;;;;;;6.80;99.90;;;;;;6140376;23;20253;-87
2022/01/23 12:37:15;;;;;;;;;;;6.80;99.90;;;;;;6143416;23;19963;-88
2022/01/23 12:39:41;;;;;;;;;;;6.70;99.90;;;;;;6118274;23;20326;-87
2022/01/23 12:42:07;;;;;;;;;;;6.70;99.90;;;;;;6115584;23;19913;-87
2022/01/23 12:44:34;;;;;;;;;;;6.70;99.90;;;;;;6128198;23;20103;-88
2022/01/23 12:47:04;;;;;;;;;;;6.70;99.90;;;;;;6115699;23;19943;-85
2022/01/23 12:49:34;;;;;;;;;;;6.70;99.90;;;;;;6117096;23;20301;-86
2022/01/23 12:52:06;;;;;;;;;;;6.70;99.90;;;;;;6117806;23;19921;-86
2022/01/23 12:54:46;;;;;;;;;;;6.70;99.90;;;;;;6133496;23;19908;-87
2022/01/23 12:57:16;;;;;;;;;;;6.70;99.90;;;;;;6104274;23;19942;-86
2022/01/23 12:59:43;;;;;;;;;;;6.80;99.90;;;;;;6119021;23;19955;-85
2022/01/23 13:02:13;;;;;;;;;;;6.80;99.90;;;;;;6117916;23;19917;-86
2022/01/23 13:04:46;;;;;;;;;;;6.80;99.90;;;;;;6103656;23;20313;-85
2022/01/23 13:07:23;;;;;;;;;;;6.70;99.90;;;;;;6116648;23;20468;-87
2022/01/23 13:09:54;;;;;;;;;;;6.70;99.90;;;;;;6143824;23;20322;-86
2022/01/23 13:32:43;;;;;;;;;;;6.70;99.90;;;;;;6024850;23;19920;-86
2022/01/23 13:35:12;;;;;;;;;;;6.80;99.90;;;;;;6052650;23;20363;-87
2022/01/23 13:37:40;;;;;;;;;;;6.80;99.90;;;;;;6014794;23;19914;-87
2022/01/23 13:40:07;;;;;;;;;;;6.80;99.90;;;;;;6029244;23;19925;-85
2022/01/23 13:42:46;;;;;;;;;;;6.80;99.90;;;;;;6050092;23;19941;-86
2022/01/23 13:53:50;;;;;;;;;;;7.00;99.90;;;;;;6056185;23;19924;-88
2022/01/23 13:59:14;;;;;;;;;;;7.00;99.90;;;;;;5995294;23;19982;-90
2022/01/23 14:01:54;;;;;;;;;;;7.00;99.90;;;;;;6022537;23;20728;-90
2022/01/23 14:04:21;;;;;;;;;;;6.90;99.90;;;;;;6044161;23;19965;-90
2022/01/23 14:16:29;;;;;;;;;;;7.10;99.90;;;;;;6021034;23;19923;-90
2022/01/23 14:25:11;;;;;;;;;;;6.90;99.90;;;;;;6006080;23;19920;-90
2022/01/23 14:40:19;;;;;;;;;;;6.70;99.90;;;;;;5792707;24;20059;-91
2022/01/23 14:43:03;;;;;;;;;;;6.70;99.90;;;;;;6029005;23;19932;-91
2022/01/23 14:45:30;;;;;;;;;;;6.70;99.90;;;;;;6016454;23;19913;-91
2022/01/23 14:47:59;;;;;;;;;;;6.70;99.90;;;;;;6054708;23;19914;-91
2022/01/23 14:50:26;;;;;;;;;;;6.60;99.90;;;;;;6039940;23;19945;-90
2022/01/23 14:53:03;;;;;;;;;;;6.60;99.90;;;;;;5995456;23;19910;-91
2022/01/23 14:55:28;;;;;;;;;;;6.60;99.90;;;;;;6020018;23;19968;-90
2022/01/23 14:57:55;;;;;;;;;;;6.60;99.90;;;;;;6040701;23;19922;-91
2022/01/23 15:00:21;;;;;;;;;;;6.60;99.90;;;;;;6013336;23;20450;-91
2022/01/23 15:02:47;;;;;;;;;;;6.60;99.90;;;;;;6008684;23;20039;-91
2022/01/23 15:05:38;;;;;;;;;;;6.60;99.90;;;;;;6048244;23;20000;-91
2022/01/23 15:23:44;;;;;;;;;;;6.50;99.90;;;;;;5796454;24;20000;-87
2022/01/23 15:26:14;;;;;;;;;;;6.50;99.90;;;;;;5730571;24;20338;-87
2022/01/23 15:28:46;;;;;;;;;;;6.50;99.90;;;;;;5809308;24;20281;-87
2022/01/23 15:31:14;;;;;;;;;;;6.50;99.90;;;;;;5821333;24;19961;-88
2022/01/23 15:33:40;;;;;;;;;;;6.50;99.90;;;;;;5835185;24;19912;-87
2022/01/23 15:36:05;;;;;;;;;;;6.50;99.90;;;;;;5829323;24;19927;-87
2022/01/23 15:38:31;;;;;;;;;;;6.50;99.90;;;;;;5877623;24;20299;-87
2022/01/23 15:41:03;;;;;;;;;;;6.50;99.90;;;;;;5825093;24;20313;-87
2022/01/23 15:43:42;;;;;;;;;;;7.00;99.90;;;;;;5881368;24;19986;-88
2022/01/23 16:10:54;;;;;;;;;;;7.00;99.90;;;;;;5907577;24;19921;-87
2022/01/23 16:48:36;;;;;;;;;;;6.20;99.90;;;;;;6129933;23;19931;-86
2022/01/23 16:51:02;;;;;;;;;;;6.20;99.90;;;;;;6175485;23;19912;-85
2022/01/23 16:53:36;;;;;;;;;;;6.20;99.90;;;;;;6175812;23;19908;-87
2022/01/23 16:56:02;;;;;;;;;;;6.10;99.90;;;;;;6150036;23;20264;-86
2022/01/23 16:58:28;;;;;;;;;;;6.10;99.90;;;;;;6178986;23;19908;-86
2022/01/23 17:00:54;;;;;;;;;;;6.10;99.90;;;;;;6203316;23;19912;-87
2022/01/23 17:03:20;;;;;;;;;;;6.10;99.90;;;;;;6177686;23;19947;-87
2022/01/23 17:05:47;;;;;;;;;;;6.10;99.90;;;;;;6179124;23;19938;-88
2022/01/23 17:08:16;;;;;;;;;;;6.10;99.90;;;;;;6178493;23;19912;-88
2022/01/23 17:10:42;;;;;;;;;;;6.20;99.90;;;;;;6177597;23;19951;-87
2022/01/23 17:13:09;;;;;;;;;;;6.20;99.90;;;;;;6176417;23;20469;-86
2022/01/23 17:15:34;;;;;;;;;;;6.20;99.90;;;;;;6177252;23;20382;-87
2022/01/23 17:18:01;;;;;;;;;;;6.20;99.90;;;;;;6178487;23;19966;-88
2022/01/23 17:20:27;;;;;;;;;;;6.20;99.90;;;;;;6178435;23;19912;-87
2022/01/23 17:22:52;;;;;;;;;;;6.20;99.90;;;;;;6204675;23;19934;-88
2022/01/23 17:25:18;;;;;;;;;;;6.20;99.90;;;;;;6179241;23;19939;-90
2022/01/23 17:27:44;;;;;;;;;;;6.20;99.90;;;;;;6205556;23;19912;-89
2022/01/23 17:30:22;;;;;;;;;;;6.20;99.90;;;;;;6179403;23;20589;-89
2022/01/23 17:32:52;;;;;;;;;;;6.10;99.90;;;;;;6177712;23;19908;-91
2022/01/23 17:35:18;;;;;;;;;;;6.10;99.90;;;;;;6192640;23;20248;-88
2022/01/23 17:37:45;;;;;;;;;;;6.10;99.90;;;;;;6169121;23;19914;-90
2022/01/23 17:40:45;;;;;;;;;;;6.10;99.90;;;;;;6121010;23;20240;-89
2022/01/23 17:46:38;;;;;;;;;;;6.10;99.90;;;;;;6188963;23;20000;-90
2022/01/23 17:49:43;;;;;;;;;;;6.00;99.90;;;;;;6054159;23;20308;-91
2022/01/23 17:58:38;;;;;;;;;;;5.90;99.90;;;;;;6019059;23;19945;-87
2022/01/23 18:01:35;;;;;;;;;;;5.80;99.90;;;;;;6134822;23;19947;-93
2022/01/23 18:11:26;;;;;;;;;;;5.90;99.90;;;;;;5902964;23;19917;-95
2022/01/23 18:16:26;;;;;;;;;;;5.90;99.90;;;;;;6126866;23;19983;-86
2022/01/23 18:18:52;;;;;;;;;;;5.90;99.90;;;;;;6121722;23;20218;-85
2022/01/23 18:21:18;;;;;;;;;;;5.90;99.90;;;;;;6087426;23;19944;-86
2022/01/23 18:23:46;;;;;;;;;;;5.80;99.90;;;;;;6100428;23;20368;-88
2022/01/23 18:26:12;;;;;;;;;;;5.80;99.90;;;;;;6135274;23;19955;-89
2022/01/23 18:28:37;;;;;;;;;;;6.20;99.90;;;;;;6118326;23;20324;-89
2022/01/23 18:31:03;;;;;;;;;;;6.00;99.90;;;;;;6123960;23;20242;-88
2022/01/23 18:33:31;;;;;;;;;;;5.90;99.90;;;;;;6117642;23;20265;-89
2022/01/23 18:35:58;;;;;;;;;;;5.80;99.90;;;;;;6118054;23;20560;-89
2022/01/23 18:38:24;;;;;;;;;;;5.80;99.90;;;;;;6143988;23;19920;-88
2022/01/23 18:40:49;;;;;;;;;;;5.80;99.90;;;;;;6116818;23;20269;-89
2022/01/23 18:43:15;;;;;;;;;;;5.70;99.90;;;;;;6118431;23;20031;-88
2022/01/23 18:45:42;;;;;;;;;;;5.80;99.90;;;;;;6128601;23;19908;-88
2022/01/23 18:48:08;;;;;;;;;;;5.80;99.90;;;;;;6118356;23;20326;-89
2022/01/23 18:50:36;;;;;;;;;;;5.80;99.90;;;;;;6116998;23;19927;-89
2022/01/23 18:53:27;;;;;;;;;;;5.80;99.90;;;;;;6118135;23;19908;-89
2022/01/23 18:55:52;;;;;;;;;;;5.80;99.90;;;;;;6128513;23;20280;-89
2022/01/23 18:58:28;;;;;;;;;;;5.80;99.90;;;;;;6132132;23;19941;-88
2022/01/23 19:00:55;;;;;;;;;;;5.80;99.90;;;;;;6145035;23;19981;-87
2022/01/23 19:03:35;;;;;;;;;;;5.80;99.90;;;;;;6122179;23;19944;-86
2022/01/23 19:06:51;;;;;;;;;;;5.80;99.90;;;;;;6121601;23;19918;-87
2022/01/23 19:08:52;;;;;;;;;;;5.80;99.90;;;;;;6137712;23;19913;-86
2022/01/23 19:11:17;;;;;;;;;;;5.70;99.90;;;;;;6147973;23;19979;-87
2022/01/23 19:13:43;;;;;;;;;;;5.70;99.90;;;;;;6123507;23;20281;-87
2022/01/23 19:16:08;;;;;;;;;;;5.80;99.90;;;;;;6120970;23;19931;-88
2022/01/23 19:18:34;;;;;;;;;;;5.70;99.90;;;;;;6119435;23;19924;-87
2022/01/23 19:21:00;;;;;;;;;;;5.80;99.90;;;;;;6121454;23;19913;-86
2022/01/23 19:23:25;;;;;;;;;;;5.80;99.90;;;;;;6122454;23;19943;-86
2022/01/23 19:25:52;;;;;;;;;;;5.80;99.90;;;;;;6122405;23;19920;-86
2022/01/23 19:28:18;;;;;;;;;;;5.80;99.90;;;;;;6108568;23;19909;-86
2022/01/23 19:30:44;;;;;;;;;;;5.80;99.90;;;;;;6146901;23;19909;-86
2022/01/23 19:33:11;;;;;;;;;;;5.70;99.90;;;;;;6122486;23;20231;-87
2022/01/23 19:35:37;;;;;;;;;;;5.80;99.90;;;;;;6121464;23;19919;-87
2022/01/23 19:38:06;;;;;;;;;;;5.80;99.90;;;;;;6108770;23;20009;-87
2022/01/23 19:41:09;;;;;;;;;;;5.80;99.90;;;;;;6146904;23;19972;-87
2022/01/23 19:45:53;;;;;;;;;;;5.80;99.90;;;;;;6148001;23;20325;-86
2022/01/23 19:48:28;;;;;;;;;;;5.80;99.90;;;;;;6122127;23;20280;-86
2022/01/23 19:50:54;;;;;;;;;;;5.80;99.90;;;;;;6147224;23;19931;-87
2022/01/23 19:53:20;;;;;;;;;;;5.80;99.90;;;;;;6121885;23;19937;-86
2022/01/23 19:55:45;;;;;;;;;;;5.80;99.90;;;;;;6120886;23;19913;-87
2022/01/23 19:58:11;;;;;;;;;;;5.80;99.90;;;;;;6121346;23;19909;-87
2022/01/23 20:00:37;;;;;;;;;;;5.80;99.90;;;;;;6120139;23;19908;-86
2022/01/23 20:03:03;;;;;;;;;;;5.80;99.90;;;;;;6122221;23;19987;-86
2022/01/23 20:05:29;;;;;;;;;;;5.80;99.90;;;;;;6120222;23;19912;-87
2022/01/23 20:07:55;;;;;;;;;;;5.80;99.90;;;;;;6147646;23;19941;-86
2022/01/23 20:12:57;;;;;;;;;;;5.80;99.90;;;;;;6131497;23;23055;-88
2022/01/23 20:15:24;;;;;;;;;;;5.80;99.90;;;;;;6118715;23;19987;-87